Time;durP1;ratioP1;P1;durP2;ratioP2;P2;SDS_P1;SDS_P2;PMS_P1;PMS_P2;Temp;Humidity;BMP_temperature;BMP_pressure;BME280_temperature;BME280_humidity;BME280_pressure;Samples;Min_cycle;Max_cycle;Signal;HPM_P1;HPM_P2
2024/03/20 13:46:49;;;;;;;4.30;2.00;;;;;;;7.03;100.00;100889.55;106320;1255;76786;-78
2024/03/20 13:49:23;;;;;;;3.00;2.20;;;;;;;7.05;100.00;100893.89;106233;1254;72066;-77
2024/03/20 13:51:58;;;;;;;4.40;2.10;;;;;;;7.08;100.00;100893.23;107160;1259;73405;-77
2024/03/20 13:54:38;;;;;;;3.40;2.00;;;;;;;7.08;100.00;100891.06;106607;1254;62381;-84
2024/03/20 13:57:13;;;;;;;3.20;2.50;;;;;;;7.11;100.00;100889.90;106502;1257;61385;-78
2024/03/20 13:59:46;;;;;;;3.80;2.70;;;;;;;7.19;100.00;100891.25;106315;1253;75449;-77
2024/03/20 14:02:32;;;;;;;4.70;3.20;;;;;;;7.18;100.00;100892.71;106317;1258;69866;-83
2024/03/20 14:05:22;;;;;;;5.10;2.90;;;;;;;7.18;100.00;100895.92;106255;1254;73347;-78
2024/03/20 14:07:55;;;;;;;5.80;3.90;;;;;;;7.15;100.00;100891.90;106272;1255;63681;-84
2024/03/20 14:10:29;;;;;;;4.00;2.60;;;;;;;7.06;100.00;100895.16;106196;1257;62366;-84
2024/03/20 14:13:09;;;;;;;4.00;2.30;;;;;;;7.00;100.00;100890.89;106417;1253;77017;-77
2024/03/20 14:15:49;;;;;;;4.60;3.10;;;;;;;7.09;100.00;100889.71;106256;1259;69655;-77
2024/03/20 14:18:24;;;;;;;4.40;2.60;;;;;;;7.09;100.00;100887.71;104976;1254;1736285;-84
2024/03/20 14:21:02;;;;;;;3.10;2.70;;;;;;;7.13;100.00;100887.22;106237;1259;61666;-84
2024/03/20 14:23:42;;;;;;;4.20;2.70;;;;;;;7.11;100.00;100888.45;106229;1254;61358;-83
2024/03/20 14:26:27;;;;;;;3.20;2.50;;;;;;;7.07;100.00;100885.67;106243;1254;75369;-84
2024/03/20 14:29:11;;;;;;;4.90;3.20;;;;;;;7.06;100.00;100885.31;106156;1254;70988;-78
2024/03/20 14:31:41;;;;;;;5.60;3.90;;;;;;;7.09;100.00;100885.15;106280;1255;75065;-77
2024/03/20 14:34:23;;;;;;;4.60;3.30;;;;;;;7.15;100.00;100887.94;106567;1259;62095;-78
2024/03/20 14:37:03;;;;;;;3.70;2.70;;;;;;;7.21;100.00;100884.11;106509;1259;62346;-84
2024/03/20 14:39:43;;;;;;;3.10;2.40;;;;;;;7.24;100.00;100889.10;106672;1254;76344;-77
2024/03/20 14:42:11;;;;;;;3.10;2.10;;;;;;;7.25;100.00;100890.41;106596;1254;69875;-77
2024/03/20 14:44:45;;;;;;;3.50;2.40;;;;;;;7.21;100.00;100894.66;107192;1254;73663;-84
2024/03/20 14:47:19;;;;;;;5.00;2.40;;;;;;;7.20;100.00;100893.16;106378;1254;63079;-77
2024/03/20 14:49:53;;;;;;;4.80;3.20;;;;;;;7.22;100.00;100896.26;106625;1257;61348;-84
2024/03/20 14:52:27;;;;;;;5.60;3.40;;;;;;;7.19;100.00;100893.82;106456;1259;76862;-77
2024/03/20 14:55:08;;;;;;;4.00;3.30;;;;;;;7.33;100.00;100894.53;106213;1254;69786;-84
2024/03/20 14:57:49;;;;;;;4.30;3.30;;;;;;;7.31;100.00;100893.08;106475;1255;74767;-79
2024/03/20 15:00:17;;;;;;;5.20;3.40;;;;;;;7.23;100.00;100894.86;106482;1256;61365;-78
2024/03/20 15:02:51;;;;;;;4.00;3.40;;;;;;;7.12;100.00;100897.61;106428;1254;62118;-84
2024/03/20 15:05:31;;;;;;;3.90;3.10;;;;;;;7.14;100.00;100896.98;106602;1259;76049;-83
2024/03/20 15:08:11;;;;;;;3.80;3.30;;;;;;;7.14;100.00;100901.83;106328;1259;71188;-83
2024/03/20 15:10:45;;;;;;;5.10;3.60;;;;;;;7.20;100.00;100898.13;106402;1260;74664;-78
2024/03/20 15:13:22;;;;;;;4.40;3.20;;;;;;;7.17;100.00;100895.02;106574;1254;63614;-83
2024/03/20 15:15:55;;;;;;;4.60;3.50;;;;;;;7.13;100.00;100895.50;106369;1255;61244;-84
2024/03/20 15:18:35;;;;;;;5.00;3.30;;;;;;;7.09;100.00;100902.33;106256;1257;76590;-78
2024/03/20 15:21:12;;;;;;;4.20;2.60;;;;;;;6.98;100.00;100904.42;106380;1254;69641;-85
2024/03/20 15:23:51;;;;;;;5.90;3.20;;;;;;;7.00;100.00;100907.33;106458;1254;74089;-84
2024/03/20 15:26:33;;;;;;;51.80;22.40;;;;;;;6.92;100.00;100908.12;106485;1254;62032;-78
2024/03/20 15:29:07;;;;;;;9.20;4.30;;;;;;;6.92;100.00;100905.02;106447;1260;60731;-84
2024/03/20 15:31:37;;;;;;;5.40;3.40;;;;;;;6.93;100.00;100907.27;106365;1255;76550;-78
2024/03/20 15:34:10;;;;;;;5.90;4.30;;;;;;;6.90;100.00;100908.84;106407;1258;70869;-78
2024/03/20 15:36:50;;;;;;;5.60;4.10;;;;;;;6.90;100.00;100910.96;106604;1257;74650;-84
2024/03/20 15:39:31;;;;;;;5.00;3.10;;;;;;;6.93;100.00;100913.83;106470;1254;63886;-78
2024/03/20 15:42:07;;;;;;;5.00;3.30;;;;;;;6.95;100.00;100919.14;106915;1254;62458;-78
2024/03/20 15:44:40;;;;;;;6.20;4.80;;;;;;;6.96;100.00;100918.98;108422;1259;75536;-79
2024/03/20 15:47:15;;;;;;;6.10;4.60;;;;;;;6.93;100.00;100923.52;108612;1254;69730;-78
2024/03/20 15:49:58;;;;;;;4.90;4.30;;;;;;;6.94;100.00;100925.92;108829;1260;72877;-84
2024/03/20 15:52:32;;;;;;;5.50;3.50;;;;;;;6.98;100.00;100925.88;106871;1257;61355;-84
2024/03/20 15:55:05;;;;;;;6.80;4.00;;;;;;;7.02;100.00;100931.17;106815;1254;61367;-83
2024/03/20 15:57:47;;;;;;;5.00;4.10;;;;;;;7.01;100.00;100932.95;107647;1257;75767;-84
2024/03/20 16:00:21;;;;;;;9.90;4.60;;;;;;;6.96;100.00;100938.66;107347;1258;70420;-79
2024/03/20 16:02:56;;;;;;;21.00;16.80;;;;;;;6.89;100.00;100939.47;106684;1257;73826;-78
2024/03/20 16:05:36;;;;;;;12.80;11.40;;;;;;;6.92;100.00;100941.52;107329;1254;62752;-85
2024/03/20 16:08:16;;;;;;;5.90;4.80;;;;;;;6.96;100.00;100940.73;106363;1260;61441;-84
2024/03/20 16:10:56;;;;;;;6.00;4.40;;;;;;;7.02;100.00;100946.11;106200;1259;75724;-79
2024/03/20 16:13:37;;;;;;;6.40;4.30;;;;;;;7.01;100.00;100948.50;106479;1260;69102;-78
2024/03/20 16:16:26;;;;;;;5.80;4.10;;;;;;;7.06;100.00;100951.95;106540;1260;73658;-78
2024/03/20 16:19:00;;;;;;;14.50;8.00;;;;;;;6.99;100.00;100953.06;106237;1257;61413;-83
2024/03/20 16:21:40;;;;;;;11.30;8.50;;;;;;;6.97;100.00;100952.11;106803;1255;61449;-84
2024/03/20 16:24:20;;;;;;;47.60;30.60;;;;;;;6.99;100.00;100947.59;107266;1257;74857;-79
2024/03/20 16:26:59;;;;;;;16.60;9.20;;;;;;;6.98;100.00;100947.58;106343;1258;70251;-84
2024/03/20 16:29:40;;;;;;;14.40;9.50;;;;;;;7.00;100.00;100947.98;106619;1254;73784;-84
2024/03/20 16:32:13;;;;;;;13.60;7.80;;;;;;;6.98;100.00;100944.42;106479;1254;63714;-79
2024/03/20 16:34:47;;;;;;;9.50;5.80;;;;;;;7.02;100.00;100942.70;106303;1255;61199;-78
2024/03/20 16:37:27;;;;;;;8.70;5.90;;;;;;;7.05;100.00;100945.25;106360;1259;77092;-78
2024/03/20 16:40:10;;;;;;;46.60;34.10;;;;;;;6.98;100.00;100945.83;106267;1259;70652;-78
2024/03/20 16:42:52;;;;;;;10.00;7.10;;;;;;;6.93;100.00;100949.73;106398;1259;73928;-78
2024/03/20 16:45:32;;;;;;;7.50;5.50;;;;;;;6.91;100.00;100952.33;106460;1254;61377;-85
2024/03/20 16:48:12;;;;;;;8.70;6.40;;;;;;;6.91;100.00;100955.96;106442;1260;62030;-79
2024/03/20 16:50:46;;;;;;;8.60;5.90;;;;;;;6.92;100.00;100957.90;106176;1254;76957;-83
2024/03/20 16:53:19;;;;;;;11.20;7.10;;;;;;;6.96;100.00;100960.08;106460;1260;72680;-83
2024/03/20 16:55:59;;;;;;;12.90;8.50;;;;;;;6.96;100.00;100960.08;106636;1260;73798;-83
2024/03/20 16:58:39;;;;;;;14.50;9.20;;;;;;;6.94;100.00;100957.23;107259;1258;61537;-83
2024/03/20 17:01:18;;;;;;;36.20;13.30;;;;;;;6.95;100.00;100967.02;107772;1260;61493;-78
2024/03/20 17:03:52;;;;;;;4.80;3.30;;;;;;;6.97;100.00;100963.48;106579;1254;75432;-79
2024/03/20 17:06:26;;;;;;;6.40;3.80;;;;;;;6.89;100.00;100979.07;106829;1253;69759;-83
2024/03/20 17:09:07;;;;;;;5.80;3.70;;;;;;;6.84;100.00;100971.77;107645;1260;74941;-78
2024/03/20 17:11:47;;;;;;;8.80;6.50;;;;;;;6.90;100.00;100983.63;106632;1254;62371;-78
2024/03/20 17:14:27;;;;;;;9.20;6.50;;;;;;;6.92;100.00;100984.41;106248;1254;61950;-83
2024/03/20 17:17:06;;;;;;;4.60;3.80;;;;;;;6.91;100.00;100989.11;106159;1260;74584;-78
2024/03/20 17:19:46;;;;;;;9.70;7.60;;;;;;;6.94;100.00;100988.34;106540;1254;70661;-78
2024/03/20 17:22:20;;;;;;;6.90;5.30;;;;;;;6.93;100.00;100992.40;106419;1260;73857;-78
2024/03/20 17:24:55;;;;;;;4.90;4.10;;;;;;;6.90;100.00;100990.55;106340;1257;62740;-79
2024/03/20 17:27:35;;;;;;;7.70;3.80;;;;;;;6.88;100.00;100990.63;106474;1254;61321;-78
2024/03/20 17:30:16;;;;;;;7.10;3.60;;;;;;;6.94;100.00;100990.54;106400;1254;76721;-78
2024/03/20 17:32:57;;;;;;;5.60;4.00;;;;;;;6.92;100.00;100989.23;106287;1258;70768;-78
2024/03/20 17:35:37;;;;;;;6.70;5.10;;;;;;;6.98;100.00;100990.12;106342;1254;72569;-78
2024/03/20 17:38:11;;;;;;;10.40;7.20;;;;;;;7.01;100.00;100986.09;106329;1254;61541;-78
2024/03/20 17:40:46;;;;;;;8.20;5.50;;;;;;;7.04;100.00;100986.10;106212;1254;62430;-83
2024/03/20 17:43:26;;;;;;;9.10;6.20;;;;;;;7.02;100.00;100988.73;107717;1254;76961;-78
2024/03/20 17:46:06;;;;;;;14.40;8.70;;;;;;;7.00;100.00;100990.54;106568;1254;69754;-85
2024/03/20 21:46:36;;;;;;;41.80;25.90;;;;;;;7.17;100.00;101025.00;106654;1257;74334;-84
2024/03/20 21:49:10;;;;;;;55.20;29.10;;;;;;;7.09;100.00;101015.50;106312;1253;62128;-77
2024/03/20 21:51:44;;;;;;;60.20;33.70;;;;;;;7.13;100.00;101013.88;107205;1253;61177;-78
2024/03/20 21:54:18;;;;;;;52.00;29.20;;;;;;;7.09;100.00;101019.58;106707;1256;73473;-78
2024/03/20 21:56:46;;;;;;;48.10;29.50;;;;;;;7.10;100.00;101025.84;106487;1257;68374;-78
2024/03/20 21:59:19;;;;;;;51.30;29.40;;;;;;;7.13;100.00;101029.81;106547;1253;72662;-84
2024/03/20 22:01:53;;;;;;;50.50;27.90;;;;;;;7.15;100.00;101031.04;106523;1253;61445;-78
2024/03/20 22:04:27;;;;;;;47.10;28.60;;;;;;;7.14;100.00;101034.61;106738;1254;61869;-78
2024/03/20 22:06:55;;;;;;;42.00;24.70;;;;;;;7.10;100.00;101031.21;106425;1259;76823;-77
2024/03/20 22:09:29;;;;;;;41.60;24.90;;;;;;;7.12;100.00;101023.98;106410;1254;67095;-84
2024/03/20 22:12:23;;;;;;;43.30;26.90;;;;;;;7.12;100.00;101028.81;106803;1254;71672;-85
2024/03/20 22:14:56;;;;;;;42.60;26.40;;;;;;;7.13;100.00;101027.55;107162;1253;61283;-77
2024/03/20 22:17:24;;;;;;;42.70;24.60;;;;;;;7.15;100.00;101027.52;109263;1253;59324;-80
2024/03/20 22:19:58;;;;;;;38.90;24.20;;;;;;;7.13;100.00;101029.85;107032;1254;73404;-84
2024/03/20 22:22:32;;;;;;;40.90;24.90;;;;;;;7.10;100.00;101030.20;106612;1256;67252;-84
2024/03/20 22:25:06;;;;;;;40.20;24.80;;;;;;;7.06;100.00;101028.15;106371;1254;72675;-84
2024/03/20 22:27:36;;;;;;;39.10;23.20;;;;;;;7.02;100.00;101026.16;105940;1256;61341;-84
2024/03/20 22:30:16;;;;;;;38.10;23.70;;;;;;;7.00;100.00;101023.26;105816;1254;61131;-77
2024/03/20 22:32:50;;;;;;;36.70;23.30;;;;;;;6.95;100.00;101023.55;105846;1259;73090;-78
2024/03/20 22:35:24;;;;;;;32.90;21.70;;;;;;;6.89;100.00;101021.58;105890;1257;68388;-77
2024/03/20 22:37:52;;;;;;;32.80;21.40;;;;;;;6.78;100.00;101020.04;105837;1254;71971;-77
2024/03/20 22:40:26;;;;;;;39.00;24.80;;;;;;;6.73;100.00;101017.01;106276;1254;61677;-77
2024/03/20 22:42:59;;;;;;;41.80;26.00;;;;;;;6.68;100.00;101017.00;106389;1256;62111;-84
2024/03/20 22:45:27;;;;;;;43.60;23.60;;;;;;;6.60;100.00;101019.83;106333;1257;74698;-84
2024/03/20 22:48:00;;;;;;;38.20;23.40;;;;;;;6.53;100.00;101021.95;106575;1254;67485;-77
2024/03/20 22:50:34;;;;;;;40.80;23.90;;;;;;;6.43;100.00;101024.90;106337;1257;71468;-84
2024/03/20 22:53:08;;;;;;;41.20;23.10;;;;;;;6.29;100.00;101025.21;106300;1257;61336;-84
2024/03/20 22:55:36;;;;;;;33.90;21.00;;;;;;;6.21;100.00;101028.02;106427;1257;61172;-77
2024/03/20 22:58:10;;;;;;;34.10;20.20;;;;;;;6.24;100.00;101025.13;106966;1253;73730;-77
2024/03/20 23:00:47;;;;;;;32.70;21.10;;;;;;;6.21;100.00;101023.36;106493;1254;68335;-77
2024/03/20 23:03:21;;;;;;;31.60;19.00;;;;;;;6.13;100.00;101026.53;106274;1256;72730;-77
2024/03/20 23:05:53;;;;;;;29.20;17.20;;;;;;;6.05;100.00;101025.95;106290;1254;61378;-84
2024/03/20 23:08:32;;;;;;;27.30;16.20;;;;;;;6.09;100.00;101024.27;106091;1254;61401;-77
2024/03/20 23:11:06;;;;;;;24.80;16.50;;;;;;;6.00;100.00;101023.47;106296;1255;74696;-77
2024/03/20 23:13:40;;;;;;;23.00;14.00;;;;;;;5.97;100.00;101022.81;106270;1252;68374;-77
2024/03/20 23:16:09;;;;;;;23.30;15.00;;;;;;;5.90;100.00;101012.62;107526;1254;72370;-78
2024/03/20 23:18:44;;;;;;;25.50;14.10;;;;;;;5.88;100.00;101014.09;106346;1254;61723;-84
2024/03/20 23:21:18;;;;;;;24.40;13.20;;;;;;;5.90;100.00;101015.39;106642;1253;59292;-85
2024/03/20 23:23:52;;;;;;;19.50;13.00;;;;;;;5.88;100.00;101016.91;106357;1253;73524;-77
2024/03/20 23:26:20;;;;;;;20.50;12.60;;;;;;;5.87;100.00;101020.52;106359;1255;67259;-77
2024/03/20 23:28:53;;;;;;;23.20;14.50;;;;;;;5.86;100.00;101017.20;106334;1254;71475;-77
2024/03/20 23:31:27;;;;;;;23.00;13.30;;;;;;;5.83;100.00;101018.10;106385;1257;61347;-77
2024/03/20 23:34:01;;;;;;;23.80;14.20;;;;;;;5.84;100.00;101015.28;106234;1253;61400;-84
2024/03/20 23:36:28;;;;;;;29.20;15.80;;;;;;;5.87;100.00;101014.45;106360;1257;74587;-77
2024/03/20 23:39:03;;;;;;;26.80;16.20;;;;;;;5.92;100.00;101014.14;106231;1254;67048;-84
2024/03/20 23:41:37;;;;;;;28.00;16.10;;;;;;;5.92;100.00;101010.72;106424;1254;72410;-77
2024/03/20 23:44:11;;;;;;;22.60;14.20;;;;;;;5.91;100.00;101011.52;106195;1257;61305;-84
2024/03/20 23:46:38;;;;;;;26.60;15.50;;;;;;;5.95;100.00;101009.77;106245;1254;61321;-84
2024/03/20 23:49:12;;;;;;;28.70;16.10;;;;;;;5.93;100.00;101015.42;107341;1253;74589;-84
2024/03/20 23:51:47;;;;;;;23.30;14.00;;;;;;;5.94;100.00;101012.85;107110;1254;67467;-77
2024/03/20 23:54:15;;;;;;;21.70;12.70;;;;;;;5.91;100.00;101013.73;106307;1253;72659;-84
2024/03/20 23:56:49;;;;;;;21.40;13.50;;;;;;;5.92;100.00;101012.23;105938;1256;61321;-76
2024/03/20 23:59:22;;;;;;;22.90;12.70;;;;;;;5.87;100.00;101017.55;105978;1257;61358;-84
